Time;durP1;ratioP1;P1;durP2;ratioP2;P2;SDS_P1;SDS_P2;PMS_P1;PMS_P2;Temp;Humidity;BMP_temperature;BMP_pressure;BME280_temperature;BME280_humidity;BME280_pressure;Samples;Min_cycle;Max_cycle;Signal;HPM_P1;HPM_P2
2023/01/07 00:01:27;;;;;;;4.67;4.20;;;;;;;5.64;100.00;96755.81;5077056;28;20473;-74
2023/01/07 00:03:58;;;;;;;4.57;3.37;;;;;;;5.71;100.00;96765.94;5091172;28;20427;-75
2023/01/07 00:06:28;;;;;;;5.17;4.67;;;;;;;5.88;100.00;96795.09;5059272;28;20471;-75
2023/01/07 00:08:56;;;;;;;6.60;5.93;;;;;;;5.82;100.00;96783.88;5059662;28;20535;-75
2023/01/07 00:11:27;;;;;;;9.27;6.57;;;;;;;5.62;100.00;96753.47;5063122;28;20417;-75
2023/01/07 00:13:55;;;;;;;8.07;6.60;;;;;;;5.75;100.00;96780.06;5064042;28;20422;-75
2023/01/07 00:16:24;;;;;;;7.43;5.63;;;;;;;5.77;100.00;96780.56;5059569;28;20555;-75
2023/01/07 00:18:52;;;;;;;6.70;5.73;;;;;;;5.71;100.00;96785.06;5057380;28;20437;-75
2023/01/07 00:21:21;;;;;;;6.70;5.50;;;;;;;5.67;100.00;96775.44;5071529;28;20459;-74
2023/01/07 00:23:52;;;;;;;6.60;5.90;;;;;;;5.62;100.00;96768.44;5067326;28;20511;-75
2023/01/07 00:26:19;;;;;;;7.60;5.77;;;;;;;5.55;100.00;96766.13;5071726;28;20486;-75
2023/01/07 00:28:49;;;;;;;5.30;4.80;;;;;;;5.60;100.00;96781.78;5070362;28;20866;-75
2023/01/07 00:31:21;;;;;;;6.13;4.90;;;;;;;5.61;100.00;96775.53;5071833;28;20950;-75
2023/01/07 00:36:30;;;;;;;6.90;6.00;;;;;;;5.63;100.00;96770.75;5056786;28;20429;-75
2023/01/07 00:38:59;;;;;;;6.50;5.80;;;;;;;5.64;100.00;96777.56;5082413;28;21008;-75
2023/01/07 00:41:27;;;;;;;10.47;7.10;;;;;;;5.62;100.00;96766.59;5068470;28;20428;-75
2023/01/07 00:43:55;;;;;;;11.50;7.97;;;;;;;5.47;100.00;96739.75;5059067;28;20542;-75
2023/01/07 00:46:21;;;;;;;13.10;8.03;;;;;;;5.38;100.00;96733.59;5070493;28;20457;-75
2023/01/07 00:48:48;;;;;;;17.20;10.60;;;;;;;5.55;100.00;96755.66;5070294;28;20470;-75
2023/01/07 00:51:17;;;;;;;11.10;8.50;;;;;;;5.42;100.00;96738.00;5070022;28;20428;-75
2023/01/07 00:53:44;;;;;;;10.20;7.13;;;;;;;5.57;100.00;96758.75;5064551;28;20527;-75
2023/01/07 00:56:13;;;;;;;8.83;7.40;;;;;;;5.76;100.00;96768.50;5068934;28;20485;-75
2023/01/07 00:58:40;;;;;;;6.20;5.10;;;;;;;5.71;100.00;96758.06;5059535;28;20865;-75
2023/01/07 01:01:09;;;;;;;6.87;6.17;;;;;;;5.76;100.00;96773.75;5073697;28;20442;-75
2023/01/07 01:03:37;;;;;;;8.13;6.33;;;;;;;5.36;100.00;96707.69;5079327;28;20436;-75
2023/01/07 01:06:06;;;;;;;6.20;5.60;;;;;;;5.53;100.00;96736.78;5071002;28;20452;-75
2023/01/07 01:08:33;;;;;;;8.03;7.33;;;;;;;5.54;100.00;96745.44;5070354;28;20930;-76
2023/01/07 01:11:05;;;;;;;9.07;5.90;;;;;;;5.50;100.00;96745.25;5073156;28;20876;-75
2023/01/07 01:13:33;;;;;;;5.80;5.23;;;;;;;5.41;100.00;96736.44;5077507;28;20451;-75
2023/01/07 01:16:00;;;;;;;7.90;5.57;;;;;;;5.57;100.00;96765.84;5069598;28;20462;-75
2023/01/07 01:18:27;;;;;;;6.00;4.50;;;;;;;5.50;100.00;96742.63;5069610;28;20528;-76
2023/01/07 01:20:53;;;;;;;5.53;4.80;;;;;;;5.52;100.00;96744.94;5056095;28;20440;-76
2023/01/07 01:23:20;;;;;;;10.07;5.90;;;;;;;5.65;100.00;96752.13;5069331;28;20936;-76
2023/01/07 01:25:47;;;;;;;7.10;4.90;;;;;;;5.56;100.00;96733.59;5068726;28;21060;-76
2023/01/07 01:28:14;;;;;;;5.73;5.23;;;;;;;5.43;100.00;96708.09;5052933;28;20443;-75
2023/01/07 01:30:40;;;;;;;4.07;3.27;;;;;;;5.68;100.00;96717.44;5039427;28;20440;-75
2023/01/07 01:33:08;;;;;;;4.20;3.33;;;;;;;6.06;100.00;96748.94;5069512;28;20515;-75
2023/01/07 01:35:40;;;;;;;3.47;3.17;;;;;;;6.00;100.00;96742.19;5056436;28;20452;-75
2023/01/07 01:38:07;;;;;;;1.73;1.63;;;;;;;6.21;100.00;96762.59;5069470;28;20436;-76
2023/01/07 01:40:34;;;;;;;3.87;2.00;;;;;;;6.22;100.00;96748.41;5069323;28;20449;-76
2023/01/07 01:43:02;;;;;;;3.73;3.40;;;;;;;6.23;100.00;96763.09;5069132;28;20451;-76
2023/01/07 01:45:30;;;;;;;2.53;2.33;;;;;;;5.92;100.00;96707.66;5052725;28;20996;-76
2023/01/07 01:48:08;;;;;;;2.27;2.07;;;;;;;6.32;100.00;96760.59;5069229;28;20436;-76
2023/01/07 01:50:42;;;;;;;5.83;5.20;;;;;;;5.91;100.00;96737.59;5069289;28;20448;-76
2023/01/07 01:53:23;;;;;;;7.30;6.17;;;;;;;5.66;100.00;96716.94;5070632;28;20423;-76
2023/01/07 01:55:57;;;;;;;7.27;5.73;;;;;;;5.69;100.00;96740.00;5069172;28;20460;-76
2023/01/07 01:58:35;;;;;;;8.17;4.33;;;;;;;5.39;100.00;96714.97;5056721;28;20439;-76
2023/01/07 02:01:02;;;;;;;5.00;4.60;;;;;;;5.41;100.00;96727.78;5072326;28;20836;-76
2023/01/07 02:03:33;;;;;;;4.53;4.13;;;;;;;5.51;100.00;96735.53;5062959;28;20459;-76
2023/01/07 02:06:01;;;;;;;5.50;4.90;;;;;;;5.54;100.00;96737.59;5068944;28;20522;-76
2023/01/07 02:08:28;;;;;;;4.57;4.17;;;;;;;5.53;100.00;96720.28;5069729;28;20497;-76
2023/01/07 02:11:07;;;;;;;6.40;4.00;;;;;;;5.63;100.00;96728.81;5069123;28;20432;-76
2023/01/07 02:13:48;;;;;;;3.30;3.00;;;;;;;5.83;100.00;96717.22;5069187;28;20806;-76
2023/01/07 02:16:26;;;;;;;4.47;3.27;;;;;;;5.87;100.00;96689.34;5058612;28;20455;-76
2023/01/07 02:19:06;;;;;;;4.50;2.50;;;;;;;5.88;100.00;96677.78;5068967;28;20909;-76
2023/01/07 02:21:35;;;;;;;2.13;2.03;;;;;;;6.30;100.00;96735.69;5068897;28;20526;-76
2023/01/07 02:24:22;;;;;;;2.03;1.80;;;;;;;6.16;100.00;96712.81;5070439;28;20897;-76
2023/01/07 02:27:10;;;;;;;2.33;1.83;;;;;;;6.20;100.00;96718.25;5068873;28;20456;-76
2023/01/07 02:30:32;;;;;;;2.10;1.63;;;;;;;6.10;100.00;96724.44;5068918;28;20432;-76
2023/01/07 02:33:17;;;;;;;2.70;2.50;;;;;;;5.76;100.00;96708.16;5021683;28;20437;-76
2023/01/07 02:36:09;;;;;;;3.00;2.80;;;;;;;5.58;100.00;96707.09;5057210;28;20456;-76
2023/01/07 02:39:08;;;;;;;2.60;2.40;;;;;;;5.39;100.00;96683.50;5072580;28;20804;-76
2023/01/07 02:41:44;;;;;;;6.17;2.47;;;;;;;5.50;100.00;96702.50;5072544;28;20493;-76
2023/01/07 02:44:15;;;;;;;3.53;2.27;;;;;;;5.48;100.00;96692.31;5072570;28;20843;-76
2023/01/07 02:46:49;;;;;;;2.40;1.70;;;;;;;5.22;100.00;96663.03;5072515;28;20456;-76
2023/01/07 02:49:17;;;;;;;2.90;2.10;;;;;;;5.47;100.00;96703.03;5072471;28;20895;-76
2023/01/07 02:51:45;;;;;;;3.00;2.13;;;;;;;5.59;100.00;96693.69;5055676;28;20486;-76
2023/01/07 02:54:20;;;;;;;1.93;1.77;;;;;;;5.70;100.00;96677.81;5055614;28;20822;-76
2023/01/07 02:56:52;;;;;;;2.23;1.90;;;;;;;5.82;100.00;96694.66;5044298;28;20865;-76
2023/01/07 02:59:46;;;;;;;2.20;2.00;;;;;;;5.74;100.00;96694.53;5073539;28;20772;-76
2023/01/07 03:02:34;;;;;;;2.27;2.00;;;;;;;5.68;100.00;96690.44;5085131;28;20523;-76
2023/01/07 03:05:33;;;;;;;2.17;1.97;;;;;;;5.47;100.00;96674.97;5072142;28;20881;-76
2023/01/07 03:08:09;;;;;;;2.23;2.03;;;;;;;5.48;100.00;96687.06;5068738;28;20429;-76
2023/01/07 03:10:43;;;;;;;2.47;1.87;;;;;;;5.47;100.00;96674.19;5072060;28;20804;-76
2023/01/07 03:13:18;;;;;;;1.97;1.87;;;;;;;5.54;100.00;96693.00;5086491;28;20416;-74
2023/01/07 03:15:58;;;;;;;2.27;1.83;;;;;;;5.53;100.00;96692.22;5098292;28;21422;-74
2023/01/07 03:18:29;;;;;;;3.30;3.07;;;;;;;5.46;100.00;96677.88;5082011;28;20443;-75
2023/01/07 03:21:09;;;;;;;3.57;2.40;;;;;;;5.58;100.00;96686.09;5068255;28;20424;-76
2023/01/07 03:23:42;;;;;;;3.57;2.67;;;;;;;5.33;100.00;96637.44;5072155;28;20425;-76
2023/01/07 03:26:11;;;;;;;2.30;2.20;;;;;;;5.46;100.00;96664.78;5071979;28;20465;-75
2023/01/07 03:28:41;;;;;;;2.60;2.40;;;;;;;5.49;100.00;96674.72;5071797;28;20528;-75
2023/01/07 03:31:13;;;;;;;2.90;2.70;;;;;;;5.57;100.00;96687.97;5055490;28;20464;-76
2023/01/07 03:33:44;;;;;;;3.03;2.30;;;;;;;5.55;100.00;96684.06;5071837;28;20440;-75
2023/01/07 03:36:15;;;;;;;3.83;2.60;;;;;;;5.22;100.00;96655.16;5071713;28;20913;-76
2023/01/07 03:38:43;;;;;;;3.60;2.37;;;;;;;5.12;100.00;96642.19;5055017;28;20476;-76
2023/01/07 03:42:38;;;;;;;3.23;2.93;;;;;;;5.26;100.00;96658.78;5071631;28;20432;-76
2023/01/07 03:43:57;;;;;;;2.57;2.37;;;;;;;5.31;100.00;96669.19;5071390;28;20440;-76
2023/01/07 03:46:24;;;;;;;2.60;2.40;;;;;;;5.33;100.00;96669.66;5071282;28;20471;-76
2023/01/07 03:48:51;;;;;;;6.43;2.53;;;;;;;5.28;100.00;96661.88;5072259;28;20430;-76
2023/01/07 03:51:17;;;;;;;4.40;2.77;;;;;;;5.17;100.00;96636.09;5054627;28;20437;-76
2023/01/07 03:53:44;;;;;;;3.10;2.90;;;;;;;5.19;100.00;96647.84;5071101;28;20464;-76
2023/01/07 03:56:11;;;;;;;2.70;2.50;;;;;;;5.09;100.00;96621.81;5071048;28;20488;-76
2023/01/07 03:58:37;;;;;;;2.77;2.57;;;;;;;5.27;100.00;96657.72;5071146;28;20539;-76
2023/01/07 04:01:04;;;;;;;3.53;2.53;;;;;;;5.13;100.00;96630.66;5074459;28;20450;-76
2023/01/07 04:03:32;;;;;;;2.70;2.40;;;;;;;4.88;100.00;96587.22;5081135;28;20444;-76
2023/01/07 04:05:58;;;;;;;3.20;2.83;;;;;;;5.27;100.00;96649.84;5070633;28;20917;-76
2023/01/07 04:08:25;;;;;;;7.10;2.30;;;;;;;5.17;100.00;96621.16;5082080;28;20443;-76
2023/01/07 04:10:52;;;;;;;2.67;2.47;;;;;;;5.40;100.00;96645.72;5074017;28;20804;-75
2023/01/07 04:13:18;;;;;;;2.60;2.40;;;;;;;5.30;100.00;96628.31;5070849;28;20527;-76
2023/01/07 04:15:47;;;;;;;5.70;4.30;;;;;;;5.41;100.00;96638.66;5070650;28;20452;-76
2023/01/07 04:18:14;;;;;;;4.63;3.40;;;;;;;5.21;100.00;96611.69;5070657;28;20888;-76
2023/01/07 04:20:45;;;;;;;12.17;5.47;;;;;;;5.07;100.00;96597.69;5070511;28;20936;-76
2023/01/07 04:23:13;;;;;;;5.40;4.10;;;;;;;5.10;100.00;96615.50;5070709;28;20436;-76
2023/01/07 04:25:45;;;;;;;3.60;3.03;;;;;;;5.13;100.00;96627.25;5070562;28;20457;-76
2023/01/07 04:28:15;;;;;;;3.53;3.23;;;;;;;5.09;100.00;96605.31;5070597;28;20585;-76
2023/01/07 04:30:42;;;;;;;2.93;2.73;;;;;;;5.08;100.00;96607.16;5070472;28;20523;-76
2023/01/07 04:33:09;;;;;;;3.77;3.47;;;;;;;5.02;100.00;96588.06;5053843;28;20436;-76
2023/01/07 04:35:38;;;;;;;3.23;2.93;;;;;;;5.30;100.00;96630.16;5053970;28;20921;-76
2023/01/07 04:38:06;;;;;;;5.03;3.80;;;;;;;5.32;100.00;96630.63;5070539;28;20519;-76
2023/01/07 04:40:33;;;;;;;3.43;2.80;;;;;;;5.28;100.00;96622.56;5057497;28;20999;-76
2023/01/07 04:43:01;;;;;;;3.80;2.97;;;;;;;5.23;100.00;96604.31;5053733;28;20824;-76
2023/01/07 04:45:29;;;;;;;4.60;2.57;;;;;;;5.17;100.00;96600.19;5053720;28;20490;-76
2023/01/07 04:47:57;;;;;;;3.47;3.17;;;;;;;5.14;100.00;96586.88;5053891;28;20464;-76
2023/01/07 04:50:24;;;;;;;3.20;2.90;;;;;;;5.18;100.00;96593.88;5070088;28;20436;-76
2023/01/07 04:52:51;;;;;;;2.30;2.10;;;;;;;5.19;100.00;96595.44;5069885;28;20437;-76
2023/01/07 04:55:18;;;;;;;3.50;2.57;;;;;;;5.30;100.00;96614.41;5069997;28;20456;-76
2023/01/07 04:57:46;;;;;;;3.10;2.77;;;;;;;5.05;100.00;96571.78;5069836;28;20780;-76
2023/01/07 05:00:14;;;;;;;2.70;2.47;;;;;;;4.97;100.00;96551.47;5052789;28;20527;-76
2023/01/07 05:02:43;;;;;;;3.40;2.50;;;;;;;5.10;100.00;96568.31;5067072;28;21094;-76
2023/01/07 05:05:11;;;;;;;2.70;2.50;;;;;;;4.99;100.00;96561.66;5069724;28;20456;-76
2023/01/07 05:07:39;;;;;;;3.03;2.73;;;;;;;5.17;100.00;96594.16;5070230;28;20490;-76
2023/01/07 05:10:07;;;;;;;3.77;3.03;;;;;;;5.07;100.00;96578.56;5069857;28;20446;-76
2023/01/07 05:12:35;;;;;;;2.53;2.23;;;;;;;4.95;100.00;96550.22;5053417;28;20490;-76
2023/01/07 05:15:05;;;;;;;3.40;3.10;;;;;;;5.02;100.00;96561.09;5053441;28;20464;-76
2023/01/07 05:17:34;;;;;;;2.93;2.73;;;;;;;5.03;100.00;96560.81;5053309;28;20944;-76
2023/01/07 05:20:03;;;;;;;2.70;2.50;;;;;;;4.98;100.00;96549.63;5053402;28;20462;-76
2023/01/07 05:22:30;;;;;;;2.87;2.67;;;;;;;5.12;100.00;96573.28;5069531;28;20468;-76
2023/01/07 05:24:57;;;;;;;2.83;2.63;;;;;;;5.03;100.00;96558.19;5069505;28;20460;-76
2023/01/07 05:27:25;;;;;;;3.77;2.83;;;;;;;5.25;100.00;96578.59;5053201;28;20559;-76
2023/01/07 05:29:52;;;;;;;2.93;2.73;;;;;;;5.31;100.00;96579.28;5053227;28;20497;-76
2023/01/07 05:32:19;;;;;;;3.00;2.80;;;;;;;5.12;100.00;96553.09;5069570;28;20825;-76
2023/01/07 05:34:46;;;;;;;3.20;2.73;;;;;;;5.03;100.00;96541.69;5069683;28;20490;-76
2023/01/07 05:37:14;;;;;;;5.50;3.33;;;;;;;4.93;100.00;96521.66;5069791;28;20519;-76
2023/01/07 05:39:42;;;;;;;3.53;3.23;;;;;;;5.16;100.00;96559.31;5069308;28;20448;-76
2023/01/07 05:42:12;;;;;;;5.53;3.33;;;;;;;5.24;100.00;96563.91;5069349;28;20936;-76
2023/01/07 05:44:39;;;;;;;3.43;3.13;;;;;;;5.17;100.00;96544.38;5069402;28;20491;-76
2023/01/07 05:47:05;;;;;;;4.43;3.73;;;;;;;5.11;100.00;96548.91;5069182;28;20496;-76
2023/01/07 05:49:32;;;;;;;5.83;2.73;;;;;;;5.16;100.00;96559.31;5069011;28;20440;-76
2023/01/07 05:51:59;;;;;;;2.77;2.57;;;;;;;5.00;100.00;96526.53;5069364;28;20442;-76
2023/01/07 05:54:25;;;;;;;3.30;3.07;;;;;;;5.05;100.00;96550.03;5069271;28;20452;-76
2023/01/07 05:56:52;;;;;;;4.20;2.57;;;;;;;4.99;100.00;96543.34;5069369;28;20451;-76
2023/01/07 05:59:19;;;;;;;3.70;3.33;;;;;;;5.13;100.00;96548.63;5052529;28;20436;-76
2023/01/07 06:01:45;;;;;;;4.70;3.60;;;;;;;5.02;100.00;96540.13;5078123;28;20519;-76
2023/01/07 06:04:12;;;;;;;4.90;3.07;;;;;;;5.13;100.00;96569.59;5073338;28;20444;-76
2023/01/07 06:06:39;;;;;;;3.80;3.50;;;;;;;4.58;100.00;96507.25;5069020;28;20460;-76
2023/01/07 06:09:05;;;;;;;3.03;2.73;;;;;;;4.80;100.00;96524.97;5086596;28;20456;-76
2023/01/07 06:11:32;;;;;;;2.83;2.60;;;;;;;4.72;100.00;96507.31;5071610;28;20427;-76
2023/01/07 06:13:59;;;;;;;3.50;2.83;;;;;;;4.97;100.00;96534.97;5072777;28;20520;-76
2023/01/07 06:16:25;;;;;;;3.13;2.83;;;;;;;5.12;100.00;96545.22;5074240;28;20428;-76
2023/01/07 06:18:52;;;;;;;2.87;2.67;;;;;;;5.03;100.00;96533.84;5074329;28;20438;-76
2023/01/07 06:21:20;;;;;;;3.40;3.10;;;;;;;4.92;100.00;96506.22;5072731;28;20476;-76
2023/01/07 06:23:47;;;;;;;3.03;2.80;;;;;;;5.13;100.00;96525.81;5072724;28;20431;-76
2023/01/07 06:26:13;;;;;;;9.80;3.97;;;;;;;5.18;100.00;96533.59;5072871;28;20424;-75
2023/01/07 06:28:40;;;;;;;3.57;3.27;;;;;;;5.05;100.00;96513.34;5073842;28;20456;-76
2023/01/07 06:31:09;;;;;;;4.27;3.97;;;;;;;5.09;100.00;96524.84;5073842;28;20431;-76
2023/01/07 06:33:39;;;;;;;4.43;4.03;;;;;;;5.22;100.00;96546.94;5072572;28;20470;-76
2023/01/07 06:36:07;;;;;;;3.70;3.40;;;;;;;5.16;100.00;96540.19;5073963;28;20434;-76
2023/01/07 06:38:33;;;;;;;3.30;3.07;;;;;;;5.04;100.00;96520.44;5072342;28;20484;-76
2023/01/07 06:41:03;;;;;;;8.70;3.30;;;;;;;4.99;100.00;96520.53;5072446;28;20436;-76
2023/01/07 06:43:29;;;;;;;3.40;3.10;;;;;;;4.99;100.00;96525.00;5072586;28;20523;-76
2023/01/07 06:45:56;;;;;;;3.20;2.90;;;;;;;5.14;100.00;96516.91;5053399;28;21055;-76
2023/01/07 06:48:23;;;;;;;4.07;3.67;;;;;;;4.95;100.00;96508.28;5071894;28;21014;-76
2023/01/07 06:50:50;;;;;;;4.03;3.10;;;;;;;4.99;100.00;96522.38;5072653;28;20518;-76
2023/01/07 06:53:16;;;;;;;2.60;2.33;;;;;;;5.02;100.00;96519.19;5073724;28;20806;-76
2023/01/07 06:55:50;;;;;;;3.43;3.13;;;;;;;5.03;100.00;96516.25;5055609;28;20552;-76
2023/01/07 06:58:17;;;;;;;3.27;3.00;;;;;;;4.69;100.00;96468.59;5072254;28;20476;-76
2023/01/07 07:00:44;;;;;;;3.90;3.53;;;;;;;5.00;100.00;96526.53;5073776;28;20428;-76
2023/01/07 07:03:11;;;;;;;4.63;4.20;;;;;;;5.01;100.00;96507.91;5086071;28;21023;-76
2023/01/07 07:05:37;;;;;;;4.80;4.30;;;;;;;4.86;100.00;96484.56;5055245;28;20464;-76
2023/01/07 07:08:05;;;;;;;4.60;4.17;;;;;;;5.06;100.00;96499.19;5072176;28;20470;-76
2023/01/07 07:10:32;;;;;;;4.40;4.00;;;;;;;4.97;100.00;96490.44;5072177;28;20936;-75
2023/01/07 07:12:58;;;;;;;5.73;4.70;;;;;;;4.87;100.00;96478.28;5072121;28;20873;-75
2023/01/07 07:15:25;;;;;;;4.27;3.97;;;;;;;5.16;100.00;96508.75;5059840;28;21056;-76
2023/01/07 07:17:52;;;;;;;3.67;3.37;;;;;;;5.10;100.00;96500.19;5071823;28;20965;-76
2023/01/07 07:20:18;;;;;;;3.83;3.50;;;;;;;5.03;100.00;96482.19;5071692;28;20436;-76
2023/01/07 07:22:48;;;;;;;3.77;3.47;;;;;;;5.21;100.00;96503.44;5070839;28;20520;-75
2023/01/07 07:25:15;;;;;;;4.23;3.80;;;;;;;5.26;100.00;96509.38;5071463;28;20514;-76
2023/01/07 07:27:45;;;;;;;4.80;3.73;;;;;;;5.28;100.00;96506.44;5054844;28;20471;-76
2023/01/07 07:30:14;;;;;;;4.30;3.90;;;;;;;5.08;100.00;96477.97;5055050;28;20577;-76
2023/01/07 07:32:41;;;;;;;3.90;3.60;;;;;;;5.40;100.00;96517.25;5071781;28;20489;-76
2023/01/07 07:35:08;;;;;;;5.03;4.60;;;;;;;5.28;100.00;96503.81;5054746;28;20576;-75
2023/01/07 07:37:35;;;;;;;6.37;5.77;;;;;;;5.06;100.00;96478.22;5071691;28;20424;-76
2023/01/07 07:40:03;;;;;;;6.07;4.90;;;;;;;5.13;100.00;96483.13;5044201;28;20436;-76
2023/01/07 07:42:30;;;;;;;4.60;4.20;;;;;;;5.22;100.00;96499.75;5071457;28;20432;-75
2023/01/07 07:45:18;;;;;;;4.77;4.33;;;;;;;5.11;100.00;96477.38;5072623;28;20458;-76
2023/01/07 07:47:46;;;;;;;4.37;3.97;;;;;;;5.19;100.00;96497.69;5070928;28;20551;-76
2023/01/07 07:50:12;;;;;;;4.07;3.77;;;;;;;4.94;100.00;96459.56;5071402;28;20425;-75
2023/01/07 07:52:39;;;;;;;4.23;3.83;;;;;;;5.21;100.00;96490.34;5071391;28;20518;-75
2023/01/07 07:55:07;;;;;;;4.20;3.80;;;;;;;5.36;100.00;96500.56;5072817;28;20791;-75
2023/01/07 07:57:46;;;;;;;4.17;3.87;;;;;;;5.18;100.00;96478.56;5071750;28;20553;-75
2023/01/07 08:00:13;;;;;;;4.60;4.20;;;;;;;5.09;100.00;96474.28;5071387;28;20437;-75
2023/01/07 08:02:40;;;;;;;4.37;4.07;;;;;;;5.27;100.00;96494.41;5084983;28;20439;-75
2023/01/07 08:05:07;;;;;;;4.60;4.20;;;;;;;4.99;100.00;96449.00;5071198;28;20843;-75
2023/01/07 08:07:33;;;;;;;4.60;4.20;;;;;;;5.22;100.00;96479.56;5054902;28;20464;-75
2023/01/07 08:10:03;;;;;;;4.63;4.10;;;;;;;5.21;100.00;96480.63;5071367;28;20432;-75
2023/01/07 08:12:31;;;;;;;4.87;4.43;;;;;;;5.00;100.00;96450.56;5054460;28;20436;-75
2023/01/07 08:14:57;;;;;;;5.67;4.70;;;;;;;4.89;100.00;96436.06;5054404;28;20539;-75
2023/01/07 08:17:24;;;;;;;4.63;4.20;;;;;;;5.03;100.00;96453.38;5054350;28;20464;-75
2023/01/07 08:19:51;;;;;;;4.27;3.97;;;;;;;5.24;100.00;96481.88;5070646;28;20476;-75
2023/01/07 08:22:17;;;;;;;6.73;5.20;;;;;;;5.02;100.00;96466.78;5071077;28;20535;-75
2023/01/07 08:24:44;;;;;;;6.23;5.70;;;;;;;5.05;100.00;96466.97;5054233;28;20766;-75
2023/01/07 08:27:10;;;;;;;5.33;4.83;;;;;;;4.95;100.00;96443.56;5070493;28;20450;-75
2023/01/07 08:29:37;;;;;;;6.80;5.70;;;;;;;5.10;100.00;96452.25;5070366;28;20522;-75
2023/01/07 08:32:04;;;;;;;6.20;5.60;;;;;;;5.16;100.00;96456.31;5070303;28;20440;-75
2023/01/07 08:34:31;;;;;;;6.23;5.47;;;;;;;5.02;100.00;96441.34;5070296;28;20512;-75
2023/01/07 08:36:58;;;;;;;10.37;6.97;;;;;;;5.03;100.00;96442.13;5071720;28;20772;-75
2023/01/07 08:39:24;;;;;;;8.20;7.50;;;;;;;5.24;100.00;96464.31;5070256;28;20779;-75
2023/01/07 08:41:51;;;;;;;7.23;6.37;;;;;;;5.25;100.00;96458.00;5070223;28;20428;-75
2023/01/07 08:44:18;;;;;;;7.60;6.73;;;;;;;5.37;100.00;96467.25;5070332;28;20852;-75
2023/01/07 08:46:44;;;;;;;7.20;6.50;;;;;;;5.18;100.00;96423.53;5070589;28;20444;-75
2023/01/07 08:49:11;;;;;;;7.33;6.70;;;;;;;5.37;100.00;96460.16;5070461;28;20484;-75
2023/01/07 08:51:38;;;;;;;8.50;7.60;;;;;;;5.24;100.00;96432.88;5052018;28;20464;-75
2023/01/07 08:54:04;;;;;;;9.43;8.40;;;;;;;5.34;100.00;96448.41;5046644;28;20461;-75
2023/01/07 08:56:32;;;;;;;7.70;7.00;;;;;;;5.24;100.00;96426.84;5092729;28;20432;-74
2023/01/07 08:58:59;;;;;;;8.03;7.23;;;;;;;5.30;100.00;96429.06;5096951;28;20430;-74
2023/01/07 09:01:25;;;;;;;8.87;7.70;;;;;;;5.50;100.00;96448.91;5103388;28;20442;-74
2023/01/07 09:03:52;;;;;;;11.60;6.67;;;;;;;5.18;100.00;96410.41;5068337;28;20493;-76
2023/01/07 09:06:19;;;;;;;7.93;6.23;;;;;;;5.16;100.00;96402.06;5070271;28;20448;-75
2023/01/07 09:08:45;;;;;;;73.73;26.40;;;;;;;5.43;100.00;96437.25;5070265;28;20527;-75
2023/01/07 09:11:12;;;;;;;29.30;9.83;;;;;;;5.42;100.00;96422.59;5070091;28;20427;-75
2023/01/07 09:13:39;;;;;;;14.50;8.60;;;;;;;5.54;100.00;96449.88;5071225;28;20950;-75
2023/01/07 09:16:06;;;;;;;8.30;7.50;;;;;;;5.41;100.00;96437.53;5069586;28;20956;-75
2023/01/07 09:18:32;;;;;;;7.30;6.60;;;;;;;5.53;100.00;96442.31;5069844;28;20788;-75
2023/01/07 09:21:00;;;;;;;8.20;7.40;;;;;;;5.33;100.00;96412.75;5069597;28;20475;-75
2023/01/07 09:23:26;;;;;;;7.90;7.13;;;;;;;5.36;100.00;96416.66;5069579;28;20436;-75
2023/01/07 09:25:53;;;;;;;8.47;7.60;;;;;;;5.41;100.00;96429.69;5053082;28;20495;-75
2023/01/07 09:28:20;;;;;;;7.13;6.50;;;;;;;5.30;100.00;96405.47;5069407;28;20555;-75
2023/01/07 09:30:46;;;;;;;8.80;7.40;;;;;;;5.48;100.00;96431.94;5053019;28;20436;-75
2023/01/07 09:33:13;;;;;;;10.03;8.00;;;;;;;5.69;100.00;96464.56;5069468;28;20440;-76
2023/01/07 09:35:42;;;;;;;10.60;9.07;;;;;;;5.51;100.00;96445.22;5052851;28;20468;-75
2023/01/07 09:38:09;;;;;;;9.57;7.83;;;;;;;5.56;100.00;96444.34;5069233;28;20429;-75
2023/01/07 09:40:41;;;;;;;38.33;18.37;;;;;;;5.60;100.00;96438.22;5069544;28;20428;-76
2023/01/07 09:43:20;;;;;;;7.67;7.03;;;;;;;5.61;100.00;96433.78;5069541;28;20448;-76
2023/01/07 09:45:52;;;;;;;9.40;7.13;;;;;;;5.70;100.00;96444.34;5056185;28;20559;-76
2023/01/07 09:48:22;;;;;;;8.00;6.50;;;;;;;5.79;100.00;96458.34;5076430;28;20459;-75
2023/01/07 09:50:55;;;;;;;7.77;7.07;;;;;;;5.78;100.00;96454.97;5059654;28;20475;-75
2023/01/07 09:53:32;;;;;;;10.00;9.13;;;;;;;5.61;100.00;96431.16;5077404;28;20424;-76
2023/01/07 09:56:01;;;;;;;11.13;10.03;;;;;;;5.65;100.00;96426.88;5059411;28;20971;-75
2023/01/07 09:58:44;;;;;;;10.57;9.47;;;;;;;5.66;100.00;96433.69;5061152;28;20519;-76
2023/01/07 10:01:22;;;;;;;11.73;10.53;;;;;;;5.87;100.00;96450.56;5063824;28;20458;-76
2023/01/07 10:03:58;;;;;;;10.03;8.23;;;;;;;5.86;100.00;96440.38;5083564;28;20435;-75
2023/01/07 10:06:33;;;;;;;9.43;8.43;;;;;;;5.87;100.00;96440.06;5076150;28;20452;-75
2023/01/07 10:09:39;;;;;;;10.70;8.60;;;;;;;5.90;100.00;96442.16;5060814;28;20469;-75
2023/01/07 10:12:21;;;;;;;7.30;6.27;;;;;;;5.88;100.00;96418.03;5059316;28;20440;-75
2023/01/07 10:15:32;;;;;;;10.90;7.80;;;;;;;5.97;100.00;96433.09;5076167;28;20435;-75
2023/01/07 10:18:14;;;;;;;8.50;7.00;;;;;;;6.06;100.00;96423.47;5052615;28;20940;-75
2023/01/07 10:21:10;;;;;;;6.63;6.00;;;;;;;6.11;100.00;96426.75;5059060;28;20472;-76
2023/01/07 10:23:41;;;;;;;10.17;7.40;;;;;;;6.10;100.00;96416.56;5061579;28;20519;-75
2023/01/07 10:26:17;;;;;;;8.00;7.20;;;;;;;5.93;100.00;96391.72;5065569;28;20985;-75
2023/01/07 10:28:53;;;;;;;10.13;8.10;;;;;;;6.09;100.00;96404.50;5075915;28;20832;-75
2023/01/07 10:31:26;;;;;;;7.93;7.10;;;;;;;5.98;100.00;96369.06;5077525;28;20432;-75
2023/01/07 10:33:56;;;;;;;8.03;7.00;;;;;;;6.15;100.00;96392.84;5075882;28;20432;-75
2023/01/07 10:36:25;;;;;;;8.77;7.93;;;;;;;6.22;100.00;96398.44;5077148;28;20443;-75
2023/01/07 10:39:01;;;;;;;8.67;7.87;;;;;;;6.19;100.00;96397.19;5076150;28;20423;-75
2023/01/07 10:41:48;;;;;;;8.20;6.67;;;;;;;6.20;100.00;96393.50;5062282;28;20435;-75
2023/01/07 10:44:39;;;;;;;10.40;8.20;;;;;;;6.27;100.00;96392.31;5075549;28;20782;-75
2023/01/07 10:47:06;;;;;;;8.00;7.20;;;;;;;6.30;100.00;96389.88;5066040;28;20479;-76
2023/01/07 10:49:45;;;;;;;17.33;8.43;;;;;;;6.33;100.00;96384.03;5075720;28;20476;-75
2023/01/07 10:52:30;;;;;;;11.43;10.03;;;;;;;6.33;100.00;96376.16;5075714;28;20432;-75
2023/01/07 10:55:15;;;;;;;13.10;9.03;;;;;;;6.37;100.00;96378.97;5075765;28;20440;-75
2023/01/07 10:57:43;;;;;;;9.10;7.87;;;;;;;6.44;100.00;96360.94;5072326;28;20507;-75
2023/01/07 11:00:15;;;;;;;11.23;8.90;;;;;;;6.56;100.00;96378.81;5072873;28;20471;-75
2023/01/07 11:02:51;;;;;;;10.10;8.40;;;;;;;6.41;100.00;96364.16;5085740;28;20420;-75
2023/01/07 11:05:20;;;;;;;8.83;7.93;;;;;;;6.51;100.00;96380.44;5072147;28;20458;-75
2023/01/07 11:07:55;;;;;;;9.50;8.60;;;;;;;6.49;100.00;96364.22;5055768;28;20517;-75
2023/01/07 11:10:30;;;;;;;8.27;7.53;;;;;;;6.64;100.00;96364.94;5072270;28;20554;-76
2023/01/07 11:13:01;;;;;;;7.80;7.10;;;;;;;6.51;100.00;96343.69;5060088;28;20424;-76
2023/01/07 11:15:38;;;;;;;8.27;7.47;;;;;;;6.90;100.00;96370.34;5071699;28;21088;-76
2023/01/07 11:18:17;;;;;;;6.83;6.20;;;;;;;6.98;100.00;96367.78;5072083;28;20515;-76
2023/01/07 11:20:54;;;;;;;7.33;6.70;;;;;;;6.91;100.00;96370.03;5058609;28;20478;-76
2023/01/07 11:23:40;;;;;;;7.60;6.90;;;;;;;6.94;100.00;96363.41;5055372;28;20455;-76
2023/01/07 11:26:30;;;;;;;6.53;5.93;;;;;;;6.88;100.00;96360.13;5073183;28;20428;-76
2023/01/07 11:29:01;;;;;;;7.13;6.43;;;;;;;7.02;100.00;96358.19;5071779;28;20468;-75
2023/01/07 11:31:53;;;;;;;8.00;6.77;;;;;;;6.95;100.00;96347.34;5064563;28;20805;-75
2023/01/07 11:34:23;;;;;;;8.73;7.50;;;;;;;7.06;100.00;96340.72;5064297;28;20472;-76
2023/01/07 11:36:50;;;;;;;8.80;6.27;;;;;;;7.04;100.00;96335.00;5071656;28;20448;-76
2023/01/07 11:39:25;;;;;;;7.40;6.70;;;;;;;7.03;100.00;96332.69;5071826;28;20427;-76
2023/01/07 11:41:54;;;;;;;6.40;5.67;;;;;;;7.04;100.00;96332.38;5071829;28;20428;-76
2023/01/07 11:44:21;;;;;;;4.67;4.27;;;;;;;7.02;100.00;96334.53;5071486;28;20816;-76
2023/01/07 11:46:48;;;;;;;6.77;6.17;;;;;;;7.02;100.00;96325.88;5074706;28;20439;-76
2023/01/07 11:49:21;;;;;;;6.63;5.80;;;;;;;6.76;100.00;96302.88;5071493;28;20459;-76
2023/01/07 11:51:47;;;;;;;6.80;6.10;;;;;;;6.81;100.00;96294.88;5071429;28;20444;-76